sensor_id;sensor_type;location;lat;lon;timestamp;pressure;altitude;pressure_sealevel;temperature;humidity
54910;BME280;40808;51.240;9.964;2022-07-29T00:01:47;98031.88;;;18.83;42.89
54910;BME280;40808;51.240;9.964;2022-07-29T00:04:12;98049.72;;;18.80;43.08
54910;BME280;40808;51.240;9.964;2022-07-29T00:06:38;98033.13;;;18.78;43.14
54910;BME280;40808;51.240;9.964;2022-07-29T00:09:04;98043.88;;;18.74;43.55
54910;BME280;40808;51.240;9.964;2022-07-29T00:11:29;98038.78;;;18.71;43.76
54910;BME280;40808;51.240;9.964;2022-07-29T00:13:55;98021.34;;;18.69;43.43
54910;BME280;40808;51.240;9.964;2022-07-29T00:16:20;98021.59;;;18.64;43.37
54910;BME280;40808;51.240;9.964;2022-07-29T00:18:46;98029.38;;;18.67;43.82
54910;BME280;40808;51.240;9.964;2022-07-29T00:21:11;98023.38;;;18.64;44.20
54910;BME280;40808;51.240;9.964;2022-07-29T00:23:37;98023.78;;;18.58;43.94
54910;BME280;40808;51.240;9.964;2022-07-29T00:26:02;98022.72;;;18.46;44.39
54910;BME280;40808;51.240;9.964;2022-07-29T00:28:27;98022.91;;;18.43;44.58
54910;BME280;40808;51.240;9.964;2022-07-29T00:30:54;98021.41;;;18.39;44.04
54910;BME280;40808;51.240;9.964;2022-07-29T00:33:19;98015.28;;;18.38;44.28
54910;BME280;40808;51.240;9.964;2022-07-29T00:35:45;98009.16;;;18.38;44.35
54910;BME280;40808;51.240;9.964;2022-07-29T00:38:16;98013.47;;;18.39;44.93
54910;BME280;40808;51.240;9.964;2022-07-29T00:40:44;98004.06;;;18.35;44.42
54910;BME280;40808;51.240;9.964;2022-07-29T00:43:10;98007.56;;;18.35;44.40
54910;BME280;40808;51.240;9.964;2022-07-29T00:45:35;98006.69;;;18.35;44.55
54910;BME280;40808;51.240;9.964;2022-07-29T00:48:02;97997.94;;;18.34;44.46
54910;BME280;40808;51.240;9.964;2022-07-29T00:50:28;97998.78;;;18.35;44.79
54910;BME280;40808;51.240;9.964;2022-07-29T00:52:54;97992.81;;;18.31;44.82
54910;BME280;40808;51.240;9.964;2022-07-29T00:55:20;97988.38;;;18.32;44.67
54910;BME280;40808;51.240;9.964;2022-07-29T00:57:45;97978.56;;;18.34;44.79
54910;BME280;40808;51.240;9.964;2022-07-29T01:00:17;97972.38;;;18.35;44.65
54910;BME280;40808;51.240;9.964;2022-07-29T01:02:44;97981.22;;;18.34;44.90
54910;BME280;40808;51.240;9.964;2022-07-29T01:05:11;97976.97;;;18.31;45.16
54910;BME280;40808;51.240;9.964;2022-07-29T01:07:37;97973.50;;;18.31;44.88
54910;BME280;40808;51.240;9.964;2022-07-29T01:10:04;97972.66;;;18.30;45.13
54910;BME280;40808;51.240;9.964;2022-07-29T01:12:32;97964.09;;;18.27;45.36
54910;BME280;40808;51.240;9.964;2022-07-29T01:15:00;97970.13;;;18.29;44.88
54910;BME280;40808;51.240;9.964;2022-07-29T01:17:31;97969.38;;;18.27;45.14
54910;BME280;40808;51.240;9.964;2022-07-29T01:20:10;97964.09;;;18.27;45.13
54910;BME280;40808;51.240;9.964;2022-07-29T01:22:53;97965.13;;;18.24;45.79
54910;BME280;40808;51.240;9.964;2022-07-29T01:31:02;97967.78;;;18.24;45.62
54910;BME280;40808;51.240;9.964;2022-07-29T01:33:30;97965.97;;;18.25;45.73
54910;BME280;40808;51.240;9.964;2022-07-29T01:36:23;97956.63;;;18.19;46.20
54910;BME280;40808;51.240;9.964;2022-07-29T01:38:58;97959.16;;;18.21;46.29
54910;BME280;40808;51.240;9.964;2022-07-29T01:41:31;97953.25;;;18.17;46.00
54910;BME280;40808;51.240;9.964;2022-07-29T01:44:02;97949.00;;;18.14;46.01
54910;BME280;40808;51.240;9.964;2022-07-29T01:46:34;97955.03;;;18.16;45.89
54910;BME280;40808;51.240;9.964;2022-07-29T01:49:10;97960.31;;;18.16;46.36
54910;BME280;40808;51.240;9.964;2022-07-29T01:51:46;97950.78;;;18.14;45.86
54910;BME280;40808;51.240;9.964;2022-07-29T01:54:28;97949.00;;;18.14;45.96
54910;BME280;40808;51.240;9.964;2022-07-29T01:56:58;97941.09;;;18.14;45.87
54910;BME280;40808;51.240;9.964;2022-07-29T01:59:25;97942.03;;;18.13;46.16
54910;BME280;40808;51.240;9.964;2022-07-29T02:01:53;97939.66;;;18.09;46.01
54910;BME280;40808;51.240;9.964;2022-07-29T02:04:19;97941.44;;;18.08;46.00
54910;BME280;40808;51.240;9.964;2022-07-29T02:06:47;97938.16;;;18.05;46.03
54910;BME280;40808;51.240;9.964;2022-07-29T02:09:14;97937.47;;;18.01;46.71
54910;BME280;40808;51.240;9.964;2022-07-29T02:11:48;97926.47;;;17.95;46.96
54910;BME280;40808;51.240;9.964;2022-07-29T02:14:17;97921.19;;;17.95;46.71
54910;BME280;40808;51.240;9.964;2022-07-29T02:16:43;97921.94;;;17.97;46.49
54910;BME280;40808;51.240;9.964;2022-07-29T02:19:12;97929.00;;;17.96;47.07
54910;BME280;40808;51.240;9.964;2022-07-29T02:21:38;97916.94;;;17.92;46.78
54910;BME280;40808;51.240;9.964;2022-07-29T02:24:05;97922.19;;;17.92;47.35
54910;BME280;40808;51.240;9.964;2022-07-29T02:26:32;97906.56;;;17.89;47.18
54910;BME280;40808;51.240;9.964;2022-07-29T02:28:59;97917.97;;;17.89;47.26
54910;BME280;40808;51.240;9.964;2022-07-29T02:31:30;97911.84;;;17.89;47.56
54910;BME280;40808;51.240;9.964;2022-07-29T02:33:57;97910.16;;;17.88;47.18
54910;BME280;40808;51.240;9.964;2022-07-29T02:36:23;97913.75;;;17.87;47.57
54910;BME280;40808;51.240;9.964;2022-07-29T02:38:51;97913.00;;;17.85;47.79
54910;BME280;40808;51.240;9.964;2022-07-29T02:41:30;97907.31;;;17.77;49.44
54910;BME280;40808;51.240;9.964;2022-07-29T02:44:09;97911.84;;;17.75;48.46
54910;BME280;40808;51.240;9.964;2022-07-29T02:46:36;97911.84;;;17.75;48.01
54910;BME280;40808;51.240;9.964;2022-07-29T02:51:51;97904.78;;;17.75;47.56
54910;BME280;40808;51.240;9.964;2022-07-29T02:54:37;97909.22;;;17.75;48.42
54910;BME280;40808;51.240;9.964;2022-07-29T02:57:34;97906.81;;;17.70;48.13
54910;BME280;40808;51.240;9.964;2022-07-29T03:00:01;97907.28;;;17.63;47.98
54910;BME280;40808;51.240;9.964;2022-07-29T03:02:33;97902.94;;;17.62;48.44
54910;BME280;40808;51.240;9.964;2022-07-29T03:04:59;97894.25;;;17.59;48.16
54910;BME280;40808;51.240;9.964;2022-07-29T03:07:27;97892.41;;;17.62;48.14
54910;BME280;40808;51.240;9.964;2022-07-29T03:09:53;97890.78;;;17.59;47.67
54910;BME280;40808;51.240;9.964;2022-07-29T03:12:19;97891.53;;;17.61;47.36
54910;BME280;40808;51.240;9.964;2022-07-29T03:14:45;97897.69;;;17.62;47.94
54910;BME280;40808;51.240;9.964;2022-07-29T03:17:11;97904.69;;;17.61;47.51
54910;BME280;40808;51.240;9.964;2022-07-29T03:19:38;97904.63;;;17.63;47.49
54910;BME280;40808;51.240;9.964;2022-07-29T03:22:04;97910.75;;;17.63;47.54
54910;BME280;40808;51.240;9.964;2022-07-29T03:24:32;97906.16;;;17.67;47.38
54910;BME280;40808;51.240;9.964;2022-07-29T03:26:58;97900.03;;;17.66;47.43
54910;BME280;40808;51.240;9.964;2022-07-29T03:29:24;97900.72;;;17.70;47.40
54910;BME280;40808;51.240;9.964;2022-07-29T03:31:50;97900.72;;;17.70;47.45
54910;BME280;40808;51.240;9.964;2022-07-29T03:34:15;97899.19;;;17.66;47.76
54910;BME280;40808;51.240;9.964;2022-07-29T03:36:41;97899.19;;;17.66;47.48
54910;BME280;40808;51.240;9.964;2022-07-29T03:39:08;97897.69;;;17.62;47.61
54910;BME280;40808;51.240;9.964;2022-07-29T03:41:36;97888.72;;;17.64;47.68
54910;BME280;40808;51.240;9.964;2022-07-29T03:44:05;97886.94;;;17.65;47.75
54910;BME280;40808;51.240;9.964;2022-07-29T03:46:33;97882.75;;;17.60;47.76
54910;BME280;40808;51.240;9.964;2022-07-29T03:49:00;97890.50;;;17.64;47.78
54910;BME280;40808;51.240;9.964;2022-07-29T03:51:28;97887.19;;;17.60;48.24
54910;BME280;40808;51.240;9.964;2022-07-29T03:53:53;97888.22;;;17.57;47.80
54910;BME280;40808;51.240;9.964;2022-07-29T03:56:21;97889.16;;;17.56;48.30
54910;BME280;40808;51.240;9.964;2022-07-29T03:58:49;97888.69;;;17.50;48.24
54910;BME280;40808;51.240;9.964;2022-07-29T04:01:15;97886.03;;;17.50;48.20
54910;BME280;40808;51.240;9.964;2022-07-29T04:03:43;97893.94;;;17.50;48.23
54910;BME280;40808;51.240;9.964;2022-07-29T04:06:10;97896.53;;;17.51;48.18
54910;BME280;40808;51.240;9.964;2022-07-29T04:08:36;97898.38;;;17.49;48.16
54910;BME280;40808;51.240;9.964;2022-07-29T04:11:02;97896.53;;;17.51;48.39
54910;BME280;40808;51.240;9.964;2022-07-29T04:13:28;97901.00;;;17.49;48.55
54910;BME280;40808;51.240;9.964;2022-07-29T04:15:53;97903.59;;;17.51;48.54
54910;BME280;40808;51.240;9.964;2022-07-29T04:18:19;97900.84;;;17.52;48.61
54910;BME280;40808;51.240;9.964;2022-07-29T04:20:44;97904.44;;;17.51;48.62
54910;BME280;40808;51.240;9.964;2022-07-29T04:23:09;97905.34;;;17.50;49.33
54910;BME280;40808;51.240;9.964;2022-07-29T04:25:39;97914.38;;;17.46;49.74
54910;BME280;40808;51.240;9.964;2022-07-29T04:28:05;97909.31;;;17.43;49.01
54910;BME280;40808;51.240;9.964;2022-07-29T04:30:31;97912.03;;;17.42;48.96
54910;BME280;40808;51.240;9.964;2022-07-29T04:32:58;97914.72;;;17.40;48.91
54910;BME280;40808;51.240;9.964;2022-07-29T04:35:23;97918.31;;;17.39;48.98
54910;BME280;40808;51.240;9.964;2022-07-29T04:37:48;97922.63;;;17.40;48.87
54910;BME280;40808;51.240;9.964;2022-07-29T04:40:14;97914.66;;;17.42;49.13
54910;BME280;40808;51.240;9.964;2022-07-29T04:42:39;97920.78;;;17.42;49.06
54910;BME280;40808;51.240;9.964;2022-07-29T04:45:05;97911.94;;;17.43;48.89
54910;BME280;40808;51.240;9.964;2022-07-29T04:47:31;97912.69;;;17.45;49.29
54910;BME280;40808;51.240;9.964;2022-07-29T04:49:56;97913.44;;;17.47;49.10
54910;BME280;40808;51.240;9.964;2022-07-29T04:52:22;97910.06;;;17.45;49.52
54910;BME280;40808;51.240;9.964;2022-07-29T04:54:48;97914.38;;;17.46;49.19
54910;BME280;40808;51.240;9.964;2022-07-29T04:57:13;97903.09;;;17.44;49.25
54910;BME280;40808;51.240;9.964;2022-07-29T04:59:39;97905.63;;;17.46;49.34
54910;BME280;40808;51.240;9.964;2022-07-29T05:02:04;97898.75;;;17.43;49.77
54910;BME280;40808;51.240;9.964;2022-07-29T05:04:29;97903.66;;;17.49;49.81
54910;BME280;40808;51.240;9.964;2022-07-29T05:06:55;97909.00;;;17.48;50.45
54910;BME280;40808;51.240;9.964;2022-07-29T05:09:20;97907.22;;;17.48;50.17
54910;BME280;40808;51.240;9.964;2022-07-29T05:11:45;97911.75;;;17.46;50.07
54910;BME280;40808;51.240;9.964;2022-07-29T05:14:11;97910.06;;;17.45;50.53
54910;BME280;40808;51.240;9.964;2022-07-29T05:16:36;97911.09;;;17.43;50.07
54910;BME280;40808;51.240;9.964;2022-07-29T05:19:01;97915.66;;;17.39;50.79
54910;BME280;40808;51.240;9.964;2022-07-29T05:21:27;97902.69;;;17.36;51.05
54910;BME280;40808;51.240;9.964;2022-07-29T05:23:52;97906.06;;;17.38;51.43
54910;BME280;40808;51.240;9.964;2022-07-29T05:26:17;97908.25;;;17.46;51.25
54910;BME280;40808;51.240;9.964;2022-07-29T05:28:43;97929.25;;;17.47;51.88
54910;BME280;40808;51.240;9.964;2022-07-29T05:31:08;97918.91;;;17.44;52.17
54910;BME280;40808;51.240;9.964;2022-07-29T05:33:34;97914.19;;;17.49;52.16
54910;BME280;40808;51.240;9.964;2022-07-29T05:36:00;97909.97;;;17.77;52.54
54910;BME280;40808;51.240;9.964;2022-07-29T05:38:26;97905.66;;;18.04;50.86
54910;BME280;40808;51.240;9.964;2022-07-29T05:40:51;97908.19;;;18.34;50.33
54910;BME280;40808;51.240;9.964;2022-07-29T05:43:17;97917.56;;;18.53;48.39
54910;BME280;40808;51.240;9.964;2022-07-29T05:45:42;97913.31;;;18.79;47.68
54910;BME280;40808;51.240;9.964;2022-07-29T05:48:07;97924.31;;;18.85;47.61
54910;BME280;40808;51.240;9.964;2022-07-29T05:50:33;97917.75;;;18.78;47.38
54910;BME280;40808;51.240;9.964;2022-07-29T05:52:58;97912.94;;;18.70;47.92
54910;BME280;40808;51.240;9.964;2022-07-29T05:55:23;97914.66;;;18.71;48.01
54910;BME280;40808;51.240;9.964;2022-07-29T05:57:48;97924.66;;;18.66;47.88
54910;BME280;40808;51.240;9.964;2022-07-29T06:00:14;97917.69;;;18.65;48.24
54910;BME280;40808;51.240;9.964;2022-07-29T06:02:40;97922.78;;;18.68;48.58
54910;BME280;40808;51.240;9.964;2022-07-29T06:05:05;97917.50;;;18.68;48.05
54910;BME280;40808;51.240;9.964;2022-07-29T06:07:32;97910.50;;;18.67;47.88
54910;BME280;40808;51.240;9.964;2022-07-29T06:09:57;97909.38;;;18.71;47.83
54910;BME280;40808;51.240;9.964;2022-07-29T06:12:24;97907.38;;;18.75;47.96
54910;BME280;40808;51.240;9.964;2022-07-29T06:14:49;97910.78;;;18.77;47.79
54910;BME280;40808;51.240;9.964;2022-07-29T06:17:16;97912.56;;;18.77;47.27
54910;BME280;40808;51.240;9.964;2022-07-29T06:19:41;97911.63;;;18.78;47.62
54910;BME280;40808;51.240;9.964;2022-07-29T06:22:06;97923.88;;;18.79;48.20
54910;BME280;40808;51.240;9.964;2022-07-29T06:24:32;97924.16;;;18.74;48.01
54910;BME280;40808;51.240;9.964;2022-07-29T06:26:57;97915.50;;;18.72;48.17
54910;BME280;40808;51.240;9.964;2022-07-29T06:29:23;97915.81;;;18.67;48.05
54910;BME280;40808;51.240;9.964;2022-07-29T06:31:48;97919.09;;;18.71;48.06
54910;BME280;40808;51.240;9.964;2022-07-29T06:34:13;97916.53;;;18.69;48.18
54910;BME280;40808;51.240;9.964;2022-07-29T06:36:39;97925.94;;;18.73;48.11
54910;BME280;40808;51.240;9.964;2022-07-29T06:39:06;97919.38;;;18.66;47.78
54910;BME280;40808;51.240;9.964;2022-07-29T06:41:31;97920.47;;;18.62;47.98
54910;BME280;40808;51.240;9.964;2022-07-29T06:43:57;97917.84;;;18.62;48.20
54910;BME280;40808;51.240;9.964;2022-07-29T06:46:22;97917.00;;;18.62;48.05
54910;BME280;40808;51.240;9.964;2022-07-29T06:48:48;97915.28;;;18.61;48.18
54910;BME280;40808;51.240;9.964;2022-07-29T06:51:13;97923.44;;;18.58;47.63
54910;BME280;40808;51.240;9.964;2022-07-29T06:53:39;97921.63;;;18.58;47.72
54910;BME280;40808;51.240;9.964;2022-07-29T06:56:06;97927.00;;;18.57;47.95
54910;BME280;40808;51.240;9.964;2022-07-29T06:58:34;97929.56;;;18.58;47.99
54910;BME280;40808;51.240;9.964;2022-07-29T07:01:05;97932.09;;;18.60;48.32
54910;BME280;40808;51.240;9.964;2022-07-29T07:03:31;97934.84;;;18.58;47.96
54910;BME280;40808;51.240;9.964;2022-07-29T07:05:57;97932.28;;;18.57;47.97
54910;BME280;40808;51.240;9.964;2022-07-29T07:08:23;97935.69;;;18.59;48.32
54910;BME280;40808;51.240;9.964;2022-07-29T07:10:49;97940.75;;;18.62;48.52
54910;BME280;40808;51.240;9.964;2022-07-29T07:13:14;97935.38;;;18.63;48.51
54910;BME280;40808;51.240;9.964;2022-07-29T07:15:42;97937.03;;;18.66;48.75
54910;BME280;40808;51.240;9.964;2022-07-29T07:18:08;97940.41;;;18.68;48.66
54910;BME280;40808;51.240;9.964;2022-07-29T07:20:34;97931.88;;;18.63;48.49
54910;BME280;40808;51.240;9.964;2022-07-29T07:23:00;97936.94;;;18.67;48.94
54910;BME280;40808;51.240;9.964;2022-07-29T07:25:26;97938.63;;;18.68;48.62
54910;BME280;40808;51.240;9.964;2022-07-29T07:27:51;97940.97;;;18.73;48.68
54910;BME280;40808;51.240;9.964;2022-07-29T07:30:16;97940.00;;;18.74;48.46
54910;BME280;40808;51.240;9.964;2022-07-29T07:32:42;97943.69;;;18.71;49.02
54910;BME280;40808;51.240;9.964;2022-07-29T07:35:08;97943.69;;;18.71;48.82
54910;BME280;40808;51.240;9.964;2022-07-29T07:37:34;97953.31;;;18.72;48.93
54910;BME280;40808;51.240;9.964;2022-07-29T07:40:00;97951.09;;;18.66;48.92
54910;BME280;40808;51.240;9.964;2022-07-29T07:42:26;97963.44;;;18.66;49.05
54910;BME280;40808;51.240;9.964;2022-07-29T07:44:51;97975.66;;;18.53;49.34
54910;BME280;40808;51.240;9.964;2022-07-29T07:47:18;97970.56;;;18.50;49.40
54910;BME280;40808;51.240;9.964;2022-07-29T07:49:48;97969.72;;;18.49;49.38
54910;BME280;40808;51.240;9.964;2022-07-29T07:52:15;97972.38;;;18.49;49.94
54910;BME280;40808;51.240;9.964;2022-07-29T07:54:40;97982.75;;;18.38;49.48
54910;BME280;40808;51.240;9.964;2022-07-29T07:57:06;97988.03;;;18.38;49.76
54910;BME280;40808;51.240;9.964;2022-07-29T07:59:31;97977.94;;;18.44;49.82
54910;BME280;40808;51.240;9.964;2022-07-29T08:01:57;97968.97;;;18.47;50.00
54910;BME280;40808;51.240;9.964;2022-07-29T08:04:23;97975.00;;;18.49;50.75
54910;BME280;40808;51.240;9.964;2022-07-29T08:06:48;97967.84;;;18.51;51.76
54910;BME280;40808;51.240;9.964;2022-07-29T08:09:15;97970.38;;;18.53;52.38
54910;BME280;40808;51.240;9.964;2022-07-29T08:11:40;97965.00;;;18.54;52.75
54910;BME280;40808;51.240;9.964;2022-07-29T08:14:05;97965.09;;;18.53;52.62
54910;BME280;40808;51.240;9.964;2022-07-29T08:16:30;97955.78;;;18.47;54.36
54910;BME280;40808;51.240;9.964;2022-07-29T08:18:56;97965.59;;;18.45;55.13
54910;BME280;40808;51.240;9.964;2022-07-29T08:21:23;97953.31;;;18.44;55.82
54910;BME280;40808;51.240;9.964;2022-07-29T08:23:50;97952.19;;;18.48;56.75
54910;BME280;40808;51.240;9.964;2022-07-29T08:26:19;97951.25;;;18.49;58.21
54910;BME280;40808;51.240;9.964;2022-07-29T08:28:46;97965.41;;;18.48;59.00
54910;BME280;40808;51.240;9.964;2022-07-29T08:31:15;97950.50;;;18.47;58.23
54910;BME280;40808;51.240;9.964;2022-07-29T08:33:40;97952.47;;;18.43;58.12
54910;BME280;40808;51.240;9.964;2022-07-29T08:36:06;97935.88;;;18.41;56.98
54910;BME280;40808;51.240;9.964;2022-07-29T08:38:31;97931.53;;;18.40;57.26
54910;BME280;40808;51.240;9.964;2022-07-29T08:40:58;97929.56;;;18.44;56.30
54910;BME280;40808;51.240;9.964;2022-07-29T08:43:23;97926.53;;;18.50;55.76
54910;BME280;40808;51.240;9.964;2022-07-29T08:45:50;97918.41;;;18.53;55.99
54910;BME280;40808;51.240;9.964;2022-07-29T08:48:20;97911.81;;;18.60;58.06
54910;BME280;40808;51.240;9.964;2022-07-29T08:50:47;97921.94;;;18.68;58.69
54910;BME280;40808;51.240;9.964;2022-07-29T08:53:16;97909.16;;;18.74;59.56
54910;BME280;40808;51.240;9.964;2022-07-29T08:55:46;97900.84;;;18.81;59.06
54910;BME280;40808;51.240;9.964;2022-07-29T08:58:13;97905.53;;;18.90;59.25
54910;BME280;40808;51.240;9.964;2022-07-29T09:00:42;97912.88;;;18.99;58.75
54910;BME280;40808;51.240;9.964;2022-07-29T09:03:12;97911.63;;;19.04;59.52
54910;BME280;40808;51.240;9.964;2022-07-29T09:05:43;97902.84;;;19.04;54.54
54910;BME280;40808;51.240;9.964;2022-07-29T09:08:10;97909.22;;;19.14;54.63
54910;BME280;40808;51.240;9.964;2022-07-29T09:10:36;97912.22;;;19.22;54.20
54910;BME280;40808;51.240;9.964;2022-07-29T09:13:01;97907.78;;;19.36;54.33
54910;BME280;40808;51.240;9.964;2022-07-29T09:15:28;97900.53;;;19.52;53.08
54910;BME280;40808;51.240;9.964;2022-07-29T09:17:54;97895.91;;;19.68;53.62
54910;BME280;40808;51.240;9.964;2022-07-29T09:20:22;97898.59;;;19.81;53.00
54910;BME280;40808;51.240;9.964;2022-07-29T09:22:49;97903.44;;;19.87;50.90
54910;BME280;40808;51.240;9.964;2022-07-29T09:25:36;97903.25;;;20.03;54.10
54910;BME280;40808;51.240;9.964;2022-07-29T09:28:09;97903.34;;;20.14;51.35
54910;BME280;40808;51.240;9.964;2022-07-29T09:30:37;97910.84;;;20.33;50.73
54910;BME280;40808;51.240;9.964;2022-07-29T09:33:14;97903.22;;;20.54;51.30
54910;BME280;40808;51.240;9.964;2022-07-29T09:35:40;97901.03;;;20.71;50.22
54910;BME280;40808;51.240;9.964;2022-07-29T09:38:13;97903.59;;;20.97;49.14
54910;BME280;40808;51.240;9.964;2022-07-29T09:40:39;97909.84;;;21.20;49.25
54910;BME280;40808;51.240;9.964;2022-07-29T09:43:12;97914.97;;;21.34;48.17
54910;BME280;40808;51.240;9.964;2022-07-29T09:45:40;97900.63;;;21.60;48.08
54910;BME280;40808;51.240;9.964;2022-07-29T09:48:21;97904.69;;;22.00;47.00
54910;BME280;40808;51.240;9.964;2022-07-29T09:50:48;97897.81;;;22.08;46.98
54910;BME280;40808;51.240;9.964;2022-07-29T09:53:44;97892.03;;;22.26;46.54
54910;BME280;40808;51.240;9.964;2022-07-29T09:56:09;97904.84;;;22.43;45.67
54910;BME280;40808;51.240;9.964;2022-07-29T09:58:35;97901.94;;;22.46;44.97
54910;BME280;40808;51.240;9.964;2022-07-29T10:01:01;97900.00;;;22.48;45.48
54910;BME280;40808;51.240;9.964;2022-07-29T10:03:26;97890.81;;;22.63;44.64
54910;BME280;40808;51.240;9.964;2022-07-29T10:06:24;97886.44;;;22.73;44.20
54910;BME280;40808;51.240;9.964;2022-07-29T10:08:49;97892.47;;;22.87;44.67
54910;BME280;40808;51.240;9.964;2022-07-29T10:11:17;97884.69;;;23.06;44.50
54910;BME280;40808;51.240;9.964;2022-07-29T10:13:45;97882.72;;;23.08;44.28
54910;BME280;40808;51.240;9.964;2022-07-29T10:16:11;97888.31;;;23.05;44.31
54910;BME280;40808;51.240;9.964;2022-07-29T10:18:38;97886.66;;;22.93;44.04
54910;BME280;40808;51.240;9.964;2022-07-29T10:21:04;97880.88;;;22.88;44.15
54910;BME280;40808;51.240;9.964;2022-07-29T10:23:32;97873.72;;;22.88;44.61
54910;BME280;40808;51.240;9.964;2022-07-29T10:25:59;97869.97;;;22.91;44.20
54910;BME280;40808;51.240;9.964;2022-07-29T10:28:25;97870.72;;;22.93;44.39
54910;BME280;40808;51.240;9.964;2022-07-29T10:30:52;97876.22;;;23.01;44.77
54910;BME280;40808;51.240;9.964;2022-07-29T10:42:19;97864.63;;;23.76;43.19
54910;BME280;40808;51.240;9.964;2022-07-29T10:44:46;97860.53;;;23.93;42.84
54910;BME280;40808;51.240;9.964;2022-07-29T10:47:25;97853.50;;;23.92;42.16
54910;BME280;40808;51.240;9.964;2022-07-29T10:50:03;97863.38;;;24.01;42.53
54910;BME280;40808;51.240;9.964;2022-07-29T10:55:36;97860.34;;;24.15;41.18
54910;BME280;40808;51.240;9.964;2022-07-29T11:00:42;97859.47;;;24.35;41.02
54910;BME280;40808;51.240;9.964;2022-07-29T11:03:08;97861.03;;;24.38;40.58
54910;BME280;40808;51.240;9.964;2022-07-29T11:05:54;97864.41;;;24.40;39.17
54910;BME280;40808;51.240;9.964;2022-07-29T11:08:20;97856.28;;;24.41;40.13
54910;BME280;40808;51.240;9.964;2022-07-29T11:10:49;97856.31;;;24.51;40.52
54910;BME280;40808;51.240;9.964;2022-07-29T11:16:08;97852.13;;;24.68;38.53
54910;BME280;40808;51.240;9.964;2022-07-29T11:18:34;97860.25;;;24.66;37.82
54910;BME280;40808;51.240;9.964;2022-07-29T11:20:59;97857.91;;;24.73;37.96
54910;BME280;40808;51.240;9.964;2022-07-29T11:23:26;97868.16;;;24.87;37.85
54910;BME280;40808;51.240;9.964;2022-07-29T11:29:05;97860.31;;;24.95;36.17
54910;BME280;40808;51.240;9.964;2022-07-29T11:31:38;97864.53;;;24.98;37.27
54910;BME280;40808;51.240;9.964;2022-07-29T11:34:29;97859.47;;;24.85;36.15
54910;BME280;40808;51.240;9.964;2022-07-29T11:44:58;97833.66;;;24.95;35.96
54910;BME280;40808;51.240;9.964;2022-07-29T11:47:28;97838.47;;;25.01;35.51
54910;BME280;40808;51.240;9.964;2022-07-29T11:49:56;97832.84;;;25.14;35.79
54910;BME280;40808;51.240;9.964;2022-07-29T11:52:32;97827.06;;;25.28;34.94
54910;BME280;40808;51.240;9.964;2022-07-29T11:55:01;97827.34;;;25.45;35.07
54910;BME280;40808;51.240;9.964;2022-07-29T11:57:27;97818.72;;;25.60;34.84
54910;BME280;40808;51.240;9.964;2022-07-29T11:59:53;97826.59;;;25.72;34.53
54910;BME280;40808;51.240;9.964;2022-07-29T12:02:21;97822.91;;;25.82;34.83
54910;BME280;40808;51.240;9.964;2022-07-29T12:04:50;97824.03;;;25.89;33.69
54910;BME280;40808;51.240;9.964;2022-07-29T12:07:17;97826.28;;;25.84;33.81
54910;BME280;40808;51.240;9.964;2022-07-29T12:09:51;97819.53;;;25.90;33.56
54910;BME280;40808;51.240;9.964;2022-07-29T12:12:17;97816.13;;;25.98;33.71
54910;BME280;40808;51.240;9.964;2022-07-29T12:14:43;97816.81;;;26.00;33.85
54910;BME280;40808;51.240;9.964;2022-07-29T12:17:32;97822.28;;;26.08;32.83
54910;BME280;40808;51.240;9.964;2022-07-29T12:20:00;97821.16;;;26.01;32.70
54910;BME280;40808;51.240;9.964;2022-07-29T12:22:32;97825.22;;;26.05;33.14
54910;BME280;40808;51.240;9.964;2022-07-29T12:25:09;97814.09;;;26.09;32.70
54910;BME280;40808;51.240;9.964;2022-07-29T12:27:36;97816.88;;;26.17;33.38
54910;BME280;40808;51.240;9.964;2022-07-29T12:30:10;97808.88;;;26.17;33.00
54910;BME280;40808;51.240;9.964;2022-07-29T12:32:46;97808.66;;;26.29;32.92
54910;BME280;40808;51.240;9.964;2022-07-29T12:35:13;97809.50;;;26.39;33.08
54910;BME280;40808;51.240;9.964;2022-07-29T12:37:40;97809.66;;;26.37;32.05
54910;BME280;40808;51.240;9.964;2022-07-29T12:40:07;97815.22;;;26.44;32.29
54910;BME280;40808;51.240;9.964;2022-07-29T12:42:34;97807.75;;;26.48;31.74
54910;BME280;40808;51.240;9.964;2022-07-29T12:44:59;97799.03;;;26.45;32.41
54910;BME280;40808;51.240;9.964;2022-07-29T12:47:25;97802.19;;;26.59;32.73
54910;BME280;40808;51.240;9.964;2022-07-29T12:50:07;97793.13;;;26.69;32.36
54910;BME280;40808;51.240;9.964;2022-07-29T12:52:34;97794.25;;;26.85;32.37
54910;BME280;40808;51.240;9.964;2022-07-29T12:55:00;97785.47;;;26.92;32.16
54910;BME280;40808;51.240;9.964;2022-07-29T12:57:27;97781.75;;;27.03;32.43
54910;BME280;40808;51.240;9.964;2022-07-29T13:00:07;97775.28;;;26.96;31.50
54910;BME280;40808;51.240;9.964;2022-07-29T13:02:34;97771.63;;;26.97;32.20
54910;BME280;40808;51.240;9.964;2022-07-29T13:05:01;97766.94;;;26.99;32.66
54910;BME280;40808;51.240;9.964;2022-07-29T13:07:28;97777.28;;;26.94;32.37
54910;BME280;40808;51.240;9.964;2022-07-29T13:10:09;97769.94;;;26.96;32.50
54910;BME280;40808;51.240;9.964;2022-07-29T13:12:35;97773.63;;;26.95;32.44
54910;BME280;40808;51.240;9.964;2022-07-29T13:15:00;97767.81;;;26.99;32.81
54910;BME280;40808;51.240;9.964;2022-07-29T13:17:41;97774.63;;;26.94;31.84
54910;BME280;40808;51.240;9.964;2022-07-29T13:20:09;97763.44;;;26.98;33.05
54910;BME280;40808;51.240;9.964;2022-07-29T13:22:38;97758.66;;;27.02;32.37
54910;BME280;40808;51.240;9.964;2022-07-29T13:25:03;97768.44;;;27.11;32.25
54910;BME280;40808;51.240;9.964;2022-07-29T13:27:34;97760.78;;;27.16;31.58
54910;BME280;40808;51.240;9.964;2022-07-29T13:30:05;97767.03;;;27.25;32.08
54910;BME280;40808;51.240;9.964;2022-07-29T13:32:31;97762.47;;;27.17;32.23
54910;BME280;40808;51.240;9.964;2022-07-29T13:35:00;97764.69;;;27.22;33.06
54910;BME280;40808;51.240;9.964;2022-07-29T13:37:27;97761.28;;;27.20;32.99
54910;BME280;40808;51.240;9.964;2022-07-29T13:39:55;97756.06;;;27.10;32.17
54910;BME280;40808;51.240;9.964;2022-07-29T13:42:22;97757.97;;;27.00;32.67